createdAt,value
2023-01-17T00:00:28.049Z,97251.13
2023-01-17T00:01:30.450Z,97249.72
2023-01-17T00:02:32.238Z,97261.59
2023-01-17T00:03:34.844Z,97256.47
2023-01-17T00:04:55.369Z,97254.91
2023-01-17T00:06:23.124Z,97269.66
2023-01-17T00:07:44.321Z,97253.25
2023-01-17T00:09:15.068Z,97259.06
2023-01-17T00:10:19.861Z,97259.31
2023-01-17T00:11:21.459Z,97251.94
2023-01-17T00:12:25.777Z,97266.59
2023-01-17T00:13:27.508Z,97262.91
2023-01-17T00:14:29.244Z,97267.09
2023-01-17T00:15:31.441Z,97273.94
2023-01-17T00:16:33.243Z,97260.44
2023-01-17T00:17:35.023Z,97265.59
2023-01-17T00:18:36.793Z,97263.00
2023-01-17T00:19:57.257Z,97256.53
2023-01-17T00:21:17.581Z,97312.66
2023-01-17T00:22:44.081Z,97264.44
2023-01-17T00:24:04.528Z,97258.53
2023-01-17T00:25:25.077Z,97268.31
2023-01-17T00:26:27.598Z,97250.22
2023-01-17T00:27:30.540Z,97257.13
2023-01-17T00:28:38.137Z,97253.72
2023-01-17T00:29:39.736Z,97249.66
2023-01-17T00:30:41.395Z,97259.97
2023-01-17T00:31:43.161Z,97272.06
2023-01-17T00:32:44.735Z,97264.06
2023-01-17T00:33:46.409Z,97260.56
2023-01-17T00:34:47.973Z,97274.13
2023-01-17T00:35:51.172Z,97274.22
2023-01-17T00:36:52.851Z,97268.97
2023-01-17T00:38:06.024Z,97258.63
2023-01-17T00:39:07.573Z,97254.47
2023-01-17T00:40:10.577Z,97254.63
2023-01-17T00:41:14.626Z,97261.81
2023-01-17T00:42:16.226Z,97268.72
2023-01-17T00:43:39.408Z,97256.81
2023-01-17T00:44:59.694Z,97261.25
2023-01-17T00:46:19.634Z,97257.81
2023-01-17T00:47:39.945Z,97247.47
2023-01-17T00:49:01.199Z,97258.66
2023-01-17T00:50:21.612Z,97248.31
2023-01-17T00:51:43.739Z,97250.31
2023-01-17T00:53:04.032Z,97250.16
2023-01-17T00:54:24.469Z,97244.41
2023-01-17T00:55:44.535Z,97245.25
2023-01-17T00:57:05.316Z,97246.06
2023-01-17T00:58:26.509Z,97247.72
2023-01-17T00:59:46.885Z,97243.22
2023-01-17T01:01:07.017Z,97235.47
2023-01-17T01:02:28.540Z,97246.31
2023-01-17T01:03:48.640Z,97247.22
2023-01-17T01:05:08.785Z,97242.97
2023-01-17T01:06:29.300Z,97244.78
2023-01-17T01:07:49.421Z,97239.47
2023-01-17T01:09:10.097Z,97240.16
2023-01-17T01:10:30.229Z,97257.03
2023-01-17T01:11:50.404Z,97243.38
2023-01-17T01:13:10.424Z,97240.69
2023-01-17T01:14:30.658Z,97242.47
2023-01-17T01:15:50.939Z,97250.97
2023-01-17T01:17:10.966Z,97243.28
2023-01-17T01:18:31.552Z,97251.44
2023-01-17T01:19:52.097Z,97240.09
2023-01-17T01:21:12.231Z,97247.59
2023-01-17T01:22:32.736Z,97245.66
2023-01-17T01:23:53.548Z,97241.22
2023-01-17T01:25:13.943Z,97237.72
2023-01-17T01:26:34.049Z,97237.72
2023-01-17T01:27:54.253Z,97235.06
2023-01-17T01:29:14.276Z,97234.03
2023-01-17T01:30:34.568Z,97243.28
2023-01-17T01:31:54.963Z,97237.22
2023-01-17T01:33:14.919Z,97241.53
2023-01-17T01:34:16.630Z,97240.69
2023-01-17T01:35:18.304Z,97232.19
2023-01-17T01:36:20.794Z,97237.38
2023-01-17T01:37:22.456Z,97236.19
2023-01-17T01:38:25.147Z,97230.94
2023-01-17T01:39:26.867Z,97234.25
2023-01-17T01:40:28.507Z,97227.50
2023-01-17T01:41:30.127Z,97225.00
2023-01-17T01:42:31.811Z,97232.03
2023-01-17T01:43:54.196Z,97237.22
2023-01-17T01:44:57.179Z,97238.94
2023-01-17T01:45:58.998Z,97235.72
2023-01-17T01:47:01.178Z,97236.47
2023-01-17T01:48:15.508Z,97227.34
2023-01-17T01:49:24.793Z,97256.34
2023-01-17T01:50:28.377Z,97240.00
2023-01-17T01:51:35.359Z,97228.16
2023-01-17T01:52:43.059Z,97244.44
2023-01-17T01:53:48.065Z,97234.19
2023-01-17T01:54:58.378Z,97235.94
2023-01-17T01:56:00.524Z,97232.59
2023-01-17T01:57:05.763Z,97236.19
2023-01-17T01:58:16.611Z,97243.03
2023-01-17T01:59:21.257Z,97234.25
2023-01-17T02:00:26.807Z,97237.09
2023-01-17T02:01:31.051Z,97246.44
2023-01-17T02:02:32.886Z,97244.97
2023-01-17T02:03:36.141Z,97244.22
2023-01-17T02:04:38.239Z,97248.38
2023-01-17T02:05:42.506Z,97239.06
2023-01-17T02:06:49.042Z,97244.78
2023-01-17T02:07:55.053Z,97237.94
2023-01-17T02:09:00.155Z,97238.03
2023-01-17T02:10:03.352Z,97239.31
2023-01-17T02:11:05.452Z,97241.06
2023-01-17T02:12:08.496Z,97244.91
2023-01-17T02:13:11.698Z,97241.75
2023-01-17T02:14:18.483Z,97246.34
2023-01-17T02:15:26.602Z,97251.03
2023-01-17T02:16:47.837Z,97250.72
2023-01-17T02:18:21.988Z,97249.06
2023-01-17T02:19:51.065Z,97245.59
2023-01-17T02:20:58.812Z,97248.44
2023-01-17T02:22:24.068Z,97250.09
2023-01-17T02:23:45.099Z,97249.91
2023-01-17T02:24:59.512Z,97239.91
2023-01-17T02:27:02.469Z,97247.81
2023-01-17T02:28:22.644Z,97248.56
2023-01-17T02:30:21.581Z,97252.41
2023-01-17T02:31:41.360Z,97249.91
2023-01-17T02:32:48.549Z,97258.69
2023-01-17T02:34:01.360Z,97258.69
2023-01-17T02:35:25.166Z,97257.34
2023-01-17T02:36:33.709Z,97254.94
2023-01-17T02:37:56.259Z,97252.63
2023-01-17T02:39:00.649Z,97252.97
2023-01-17T02:40:12.945Z,97259.03
2023-01-17T02:41:30.823Z,97263.31
2023-01-17T02:42:40.402Z,97265.06
2023-01-17T02:43:42.027Z,97264.97
2023-01-17T02:44:44.584Z,97268.63
2023-01-17T02:45:46.381Z,97251.66
2023-01-17T02:46:51.238Z,97254.13
2023-01-17T02:47:52.909Z,97266.31
2023-01-17T02:48:56.345Z,97252.66
2023-01-17T02:50:12.291Z,97247.47
2023-01-17T02:51:39.124Z,97258.72
2023-01-17T02:53:05.306Z,97265.81
2023-01-17T02:54:46.729Z,97264.22
2023-01-17T02:56:06.021Z,97268.66
2023-01-17T02:57:41.062Z,97262.25
2023-01-17T02:59:17.026Z,97265.25
2023-01-17T03:00:23.980Z,97261.97
2023-01-17T03:01:54.166Z,97245.69
2023-01-17T03:03:27.108Z,97260.34
2023-01-17T03:04:39.200Z,97257.00
2023-01-17T03:05:52.418Z,97253.59
2023-01-17T03:06:55.771Z,97252.69
2023-01-17T03:07:58.571Z,97255.50
2023-01-17T03:09:01.426Z,97249.56
2023-01-17T03:10:05.525Z,97259.91
2023-01-17T03:11:09.617Z,97257.50
2023-01-17T03:12:12.045Z,97262.66
2023-01-17T03:13:14.062Z,97259.34
2023-01-17T03:14:15.646Z,97254.34
2023-01-17T03:15:17.651Z,97258.56
2023-01-17T03:16:21.836Z,97261.81
2023-01-17T03:17:26.288Z,97256.16
2023-01-17T03:18:27.935Z,97259.31
2023-01-17T03:19:29.968Z,97255.00
2023-01-17T03:20:31.582Z,97263.81
2023-01-17T03:21:33.151Z,97256.06
2023-01-17T03:22:34.767Z,97262.13
2023-01-17T03:23:36.673Z,97262.34
2023-01-17T03:24:38.279Z,97263.97
2023-01-17T03:25:39.970Z,97258.06
2023-01-17T03:26:44.846Z,97247.91
2023-01-17T03:27:46.735Z,97246.25
2023-01-17T03:28:48.390Z,97259.66
2023-01-17T03:29:49.937Z,97259.66
2023-01-17T03:30:51.772Z,97260.31
2023-01-17T03:31:53.422Z,97259.97
2023-01-17T03:32:55.044Z,97253.97
2023-01-17T03:33:56.677Z,97253.81
2023-01-17T03:34:58.305Z,97246.88
2023-01-17T03:36:00.137Z,97251.13
2023-01-17T03:37:01.796Z,97252.63
2023-01-17T03:38:03.455Z,97251.13
2023-01-17T03:39:05.104Z,97256.19
2023-01-17T03:40:07.187Z,97253.63
2023-01-17T03:41:08.787Z,97263.69
2023-01-17T03:42:10.663Z,97258.63
2023-01-17T03:43:12.497Z,97264.44
2023-01-17T03:44:14.298Z,97257.09
2023-01-17T03:45:16.268Z,97248.50
2023-01-17T03:46:27.515Z,97261.25
2023-01-17T03:47:29.082Z,97258.84
2023-01-17T03:48:31.283Z,97259.44
2023-01-17T03:49:32.931Z,97257.16
2023-01-17T03:50:34.617Z,97266.00
2023-01-17T03:51:36.200Z,97259.31
2023-01-17T03:52:37.756Z,97253.59
2023-01-17T03:53:39.616Z,97259.59
2023-01-17T03:54:41.227Z,97258.19
2023-01-17T03:55:45.857Z,97267.03
2023-01-17T03:56:47.707Z,97264.63
2023-01-17T03:57:49.370Z,97271.66
2023-01-17T03:58:51.629Z,97266.63
2023-01-17T03:59:53.382Z,97266.78
2023-01-17T04:00:55.256Z,97266.91
2023-01-17T04:01:57.081Z,97259.88
2023-01-17T04:02:59.042Z,97265.47
2023-01-17T04:04:00.768Z,97265.13
2023-01-17T04:05:02.631Z,97274.03
2023-01-17T04:06:04.333Z,97266.56
2023-01-17T04:07:05.929Z,97272.25
2023-01-17T04:08:07.740Z,97251.97
2023-01-17T04:09:09.416Z,97265.56
2023-01-17T04:10:11.342Z,97264.16
2023-01-17T04:11:12.994Z,97267.75
2023-01-17T04:12:14.926Z,97258.59
2023-01-17T04:13:19.454Z,97260.31
2023-01-17T04:14:21.135Z,97258.78
2023-01-17T04:15:22.790Z,97244.13
2023-01-17T04:16:31.208Z,97268.13
2023-01-17T04:17:33.257Z,97261.31
2023-01-17T04:18:35.193Z,97266.84
2023-01-17T04:19:36.998Z,97261.53
2023-01-17T04:20:40.177Z,97266.81
2023-01-17T04:21:41.928Z,97253.56
2023-01-17T04:22:44.418Z,97255.63
2023-01-17T04:23:46.244Z,97260.84
2023-01-17T04:24:47.789Z,97265.13
2023-01-17T04:25:49.429Z,97263.53
2023-01-17T04:26:51.197Z,97255.31
2023-01-17T04:27:53.918Z,97253.09
2023-01-17T04:28:55.719Z,97255.34
2023-01-17T04:29:57.322Z,97259.28
2023-01-17T04:31:00.031Z,97251.22
2023-01-17T04:32:01.761Z,97250.16
2023-01-17T04:33:03.473Z,97249.66
2023-01-17T04:34:05.103Z,97241.59
2023-01-17T04:35:07.215Z,97254.16
2023-01-17T04:36:09.249Z,97241.72
2023-01-17T04:37:10.858Z,97247.72
2023-01-17T04:38:12.557Z,97250.47
2023-01-17T04:39:14.184Z,97261.91
2023-01-17T04:40:15.941Z,97252.81
2023-01-17T04:41:17.527Z,97249.84
2023-01-17T04:42:19.144Z,97246.75
2023-01-17T04:43:20.761Z,97247.00
2023-01-17T04:44:22.391Z,97249.31
2023-01-17T04:45:24.013Z,97248.22
2023-01-17T04:46:25.653Z,97248.81
2023-01-17T04:47:27.615Z,97248.22
2023-01-17T04:48:31.342Z,97270.09
2023-01-17T04:49:32.957Z,97244.63
2023-01-17T04:50:34.768Z,97245.75
2023-01-17T04:51:36.354Z,97244.41
2023-01-17T04:52:38.032Z,97242.16
2023-01-17T04:53:39.689Z,97238.97
2023-01-17T04:54:41.673Z,97246.06
2023-01-17T04:55:46.853Z,97243.25
2023-01-17T04:56:49.115Z,97246.72
2023-01-17T04:57:50.831Z,97238.09
2023-01-17T04:58:52.518Z,97231.69
2023-01-17T04:59:54.225Z,97234.28
2023-01-17T05:00:56.066Z,97237.13
2023-01-17T05:01:57.762Z,97239.69
2023-01-17T05:02:59.601Z,97236.13
2023-01-17T05:04:01.290Z,97225.72
2023-01-17T05:05:02.968Z,97221.31
2023-01-17T05:06:04.799Z,97231.06
2023-01-17T05:07:06.912Z,97230.84
2023-01-17T05:08:08.558Z,97236.31
2023-01-17T05:09:11.034Z,97221.56
2023-01-17T05:10:12.712Z,97269.63
2023-01-17T05:11:14.410Z,97230.09
2023-01-17T05:12:15.971Z,97232.75
2023-01-17T05:13:18.028Z,97229.25
2023-01-17T05:14:19.663Z,97224.16
2023-01-17T05:15:21.428Z,97228.50
2023-01-17T05:16:23.030Z,97220.16
2023-01-17T05:17:24.635Z,97216.84
2023-01-17T05:18:26.378Z,97219.59
2023-01-17T05:19:27.995Z,97214.50
2023-01-17T05:20:29.677Z,97214.66
2023-01-17T05:21:32.281Z,97207.31
2023-01-17T05:22:33.861Z,97207.00
2023-01-17T05:23:35.524Z,97200.50
2023-01-17T05:24:37.429Z,97203.00
2023-01-17T05:25:44.485Z,97210.00
2023-01-17T05:26:54.824Z,97208.50
2023-01-17T05:27:59.906Z,97213.66
2023-01-17T05:29:01.444Z,97210.00
2023-01-17T05:30:03.328Z,97216.16
2023-01-17T05:31:05.086Z,97219.72
2023-01-17T05:32:06.964Z,97211.22
2023-01-17T05:33:10.170Z,97212.13
2023-01-17T05:34:11.925Z,97213.22
2023-01-17T05:35:13.562Z,97204.63
2023-01-17T05:36:15.311Z,97211.47
2023-01-17T05:37:17.398Z,97203.72
2023-01-17T05:38:19.048Z,97203.81
2023-01-17T05:39:20.634Z,97204.63
2023-01-17T05:40:25.966Z,97201.06
2023-01-17T05:41:27.618Z,97208.81
2023-01-17T05:42:29.296Z,97212.13
2023-01-17T05:43:31.551Z,97202.06
2023-01-17T05:44:33.267Z,97196.84
2023-01-17T05:45:35.545Z,97200.50
2023-01-17T05:46:37.216Z,97190.31
2023-01-17T05:47:38.894Z,97195.50
2023-01-17T05:48:40.492Z,97193.91
2023-01-17T05:49:43.847Z,97191.41
2023-01-17T05:50:47.050Z,97195.13
2023-01-17T05:51:48.715Z,97183.97
2023-01-17T05:52:52.364Z,97188.38
2023-01-17T05:53:53.945Z,97179.00
2023-01-17T05:54:55.566Z,97178.16
2023-01-17T05:55:57.139Z,97190.38
2023-01-17T05:56:58.862Z,97186.19
2023-01-17T05:58:01.399Z,97186.88
2023-01-17T05:59:03.110Z,97183.69
2023-01-17T06:00:05.331Z,97187.97
2023-01-17T06:01:07.085Z,97183.09
2023-01-17T06:02:08.808Z,97190.00
2023-01-17T06:03:11.494Z,97188.25
2023-01-17T06:04:13.153Z,97191.06
2023-01-17T06:05:15.256Z,97190.19
2023-01-17T06:06:16.963Z,97185.09
2023-01-17T06:07:18.543Z,97188.69
2023-01-17T06:08:20.232Z,97192.06
2023-01-17T06:09:21.822Z,97190.56
2023-01-17T06:10:24.324Z,97190.72
2023-01-17T06:11:26.576Z,97192.47
2023-01-17T06:12:28.234Z,97188.47
2023-01-17T06:13:29.927Z,97183.91
2023-01-17T06:14:31.566Z,97185.88
2023-01-17T06:15:35.997Z,97181.72
2023-01-17T06:16:37.787Z,97177.53
2023-01-17T06:17:39.572Z,97184.38
2023-01-17T06:18:41.186Z,97185.28
2023-01-17T06:19:42.895Z,97182.03
2023-01-17T06:20:44.952Z,97176.03
2023-01-17T06:21:46.539Z,97177.91
2023-01-17T06:22:48.178Z,97178.94
2023-01-17T06:23:49.793Z,97171.19
2023-01-17T06:24:51.425Z,97169.63
2023-01-17T06:25:53.085Z,97159.31
2023-01-17T06:26:54.761Z,97173.31
2023-01-17T06:27:56.615Z,97173.41
2023-01-17T06:28:58.701Z,97170.81
2023-01-17T06:30:00.261Z,97175.91
2023-01-17T06:31:07.441Z,97170.00
2023-01-17T06:32:09.329Z,97172.66
2023-01-17T06:33:11.582Z,97179.81
2023-01-17T06:34:13.219Z,97181.75
2023-01-17T06:35:14.920Z,97174.00
2023-01-17T06:36:16.533Z,97170.91
2023-01-17T06:37:18.210Z,97177.56
2023-01-17T06:38:20.336Z,97173.63
2023-01-17T06:39:21.901Z,97170.28
2023-01-17T06:40:24.945Z,97175.97
2023-01-17T06:41:26.689Z,97125.31
2023-01-17T06:42:28.379Z,97180.28
2023-01-17T06:43:33.580Z,97168.38
2023-01-17T06:44:35.512Z,97165.28
2023-01-17T06:45:37.248Z,97167.09
2023-01-17T06:46:39.002Z,97173.31
2023-01-17T06:47:41.411Z,97177.03
2023-01-17T06:48:43.663Z,97173.91
2023-01-17T06:49:45.255Z,97175.88
2023-01-17T06:50:48.279Z,97168.53
2023-01-17T06:51:50.473Z,97165.41
2023-01-17T06:53:10.185Z,97162.44
2023-01-17T06:54:12.036Z,97161.13
2023-01-17T06:55:13.601Z,97160.53
2023-01-17T06:56:15.380Z,97163.38
2023-01-17T06:57:17.043Z,97163.44
2023-01-17T06:58:18.698Z,97155.94
2023-01-17T06:59:21.250Z,97159.56
2023-01-17T07:00:23.094Z,97163.34
2023-01-17T07:01:25.427Z,97167.09
2023-01-17T07:02:27.180Z,97157.00
2023-01-17T07:03:28.766Z,97152.09
2023-01-17T07:04:30.398Z,97155.53
2023-01-17T07:05:32.740Z,97150.41
2023-01-17T07:06:36.615Z,97154.66
2023-01-17T07:07:38.259Z,97148.72
2023-01-17T07:08:40.237Z,97151.44
2023-01-17T07:09:42.017Z,97155.84
2023-01-17T07:10:45.266Z,97144.00
2023-01-17T07:11:46.991Z,97147.56
2023-01-17T07:12:48.677Z,97144.38
2023-01-17T07:13:50.455Z,97142.75
2023-01-17T07:14:52.112Z,97140.25
2023-01-17T07:15:54.079Z,97139.44
2023-01-17T07:16:56.794Z,97135.59
2023-01-17T07:18:01.113Z,97126.16
2023-01-17T07:19:02.795Z,97130.13
2023-01-17T07:20:04.928Z,97137.75
2023-01-17T07:21:12.796Z,97134.34
2023-01-17T07:22:16.008Z,97149.00
2023-01-17T07:23:18.678Z,97129.16
2023-01-17T07:24:21.537Z,97133.28
2023-01-17T07:25:23.340Z,97130.66
2023-01-17T07:26:25.060Z,97135.53
2023-01-17T07:27:30.334Z,97137.88
2023-01-17T07:28:33.653Z,97132.19
2023-01-17T07:29:35.349Z,97132.19
2023-01-17T07:30:37.103Z,97134.63
2023-01-17T07:31:40.406Z,97132.03
2023-01-17T07:32:42.172Z,97127.88
2023-01-17T07:33:43.817Z,97135.63
2023-01-17T07:34:45.574Z,97131.56
2023-01-17T07:35:47.403Z,97141.06
2023-01-17T07:36:49.863Z,97137.88
2023-01-17T07:37:51.651Z,97148.16
2023-01-17T07:38:53.332Z,97134.47
2023-01-17T07:39:55.014Z,97142.34
2023-01-17T07:41:00.311Z,97144.91
2023-01-17T07:42:02.411Z,97145.81
2023-01-17T07:43:14.830Z,97140.81
2023-01-17T07:44:16.515Z,97148.47
2023-01-17T07:45:18.911Z,97155.41
2023-01-17T07:46:20.769Z,97150.31
2023-01-17T07:47:24.743Z,97146.03
2023-01-17T07:48:26.565Z,97144.50
2023-01-17T07:49:28.292Z,97145.25
2023-01-17T07:50:30.068Z,97163.19
2023-01-17T07:51:31.790Z,97148.59
2023-01-17T07:52:33.592Z,97142.41
2023-01-17T07:53:36.296Z,97150.91
2023-01-17T07:54:38.888Z,97098.97
2023-01-17T07:55:40.585Z,97141.06
2023-01-17T07:56:45.640Z,97145.13
2023-01-17T07:57:50.063Z,97144.16
2023-01-17T07:58:51.756Z,97149.84
2023-01-17T07:59:53.513Z,97148.78
2023-01-17T08:01:00.561Z,97143.53
2023-01-17T08:02:02.598Z,97153.97
2023-01-17T08:03:05.841Z,97176.97
2023-01-17T08:04:09.440Z,97151.19
2023-01-17T08:05:11.350Z,97148.53
2023-01-17T08:06:22.473Z,97153.16
2023-01-17T08:07:24.263Z,97153.53
2023-01-17T08:08:26.081Z,97151.22
2023-01-17T08:09:27.821Z,97171.97
2023-01-17T08:10:29.663Z,97145.81
2023-01-17T08:11:31.349Z,97143.00
2023-01-17T08:12:34.227Z,97147.88
2023-01-17T08:13:35.959Z,97150.13
2023-01-17T08:14:37.698Z,97172.00
2023-01-17T08:15:39.541Z,97145.63
2023-01-17T08:16:41.984Z,97138.41
2023-01-17T08:17:54.353Z,97153.63
2023-01-17T08:18:56.607Z,97146.41
2023-01-17T08:19:58.340Z,97140.69
2023-01-17T08:21:00.156Z,97141.06
2023-01-17T08:22:01.915Z,97138.72
2023-01-17T08:23:03.610Z,97145.03
2023-01-17T08:24:05.534Z,97147.22
2023-01-17T08:25:07.851Z,97142.00
2023-01-17T08:26:09.836Z,97137.47
2023-01-17T08:27:11.670Z,97137.72
2023-01-17T08:28:13.446Z,97133.78
2023-01-17T08:29:15.199Z,97122.66
2023-01-17T08:30:19.166Z,97113.50
2023-01-17T08:31:20.898Z,97118.56
2023-01-17T08:32:23.485Z,97123.56
2023-01-17T08:33:25.186Z,97122.66
2023-01-17T08:34:27.235Z,97121.94
2023-01-17T08:35:29.402Z,97107.75
2023-01-17T08:36:31.335Z,97111.13
2023-01-17T08:37:33.310Z,97115.19
2023-01-17T08:38:35.408Z,97098.78
2023-01-17T08:39:37.169Z,97116.34
2023-01-17T08:40:38.990Z,97107.22
2023-01-17T08:41:41.234Z,97112.44
2023-01-17T08:42:44.274Z,97119.75
2023-01-17T08:43:50.687Z,97112.81
2023-01-17T08:44:52.580Z,97113.69
2023-01-17T08:45:56.201Z,97110.88
2023-01-17T08:46:58.349Z,97120.19
2023-01-17T08:48:00.458Z,97115.44
2023-01-17T08:49:02.988Z,97112.63
2023-01-17T08:50:06.897Z,97112.41
2023-01-17T08:51:08.793Z,97111.97
2023-01-17T08:52:13.085Z,97108.06
2023-01-17T08:53:14.829Z,97114.84
2023-01-17T08:54:17.277Z,97107.91
2023-01-17T08:55:19.203Z,97108.66
2023-01-17T08:56:21.173Z,97111.59
2023-01-17T08:57:23.199Z,97101.41
2023-01-17T08:58:24.944Z,97101.75
2023-01-17T08:59:26.783Z,97104.06
2023-01-17T09:00:29.906Z,97096.88
2023-01-17T09:01:40.730Z,97107.47
2023-01-17T09:02:42.923Z,97098.84
2023-01-17T09:03:45.662Z,97097.25
2023-01-17T09:04:48.906Z,97098.41
2023-01-17T09:05:50.673Z,97100.72
2023-01-17T09:06:52.572Z,97095.56
2023-01-17T09:07:55.781Z,97099.31
2023-01-17T09:08:59.595Z,97094.38
2023-01-17T09:10:01.449Z,97092.38
2023-01-17T09:11:12.190Z,97095.16
2023-01-17T09:12:13.828Z,97096.53
2023-01-17T09:13:16.917Z,97096.19
2023-01-17T09:14:18.714Z,97059.94
2023-01-17T09:15:20.369Z,97100.25
2023-01-17T09:16:22.347Z,97101.88
2023-01-17T09:17:24.115Z,97099.63
2023-01-17T09:18:26.967Z,97110.22
2023-01-17T09:19:29.370Z,97101.03
2023-01-17T09:20:31.075Z,97097.47
2023-01-17T09:21:35.710Z,97103.44
2023-01-17T09:22:39.006Z,97100.28
2023-01-17T09:23:41.307Z,97093.34
2023-01-17T09:24:43.014Z,97096.16
2023-01-17T09:25:44.791Z,97098.06
2023-01-17T09:26:46.930Z,97050.31
2023-01-17T09:27:49.120Z,97091.59
2023-01-17T09:28:52.117Z,97092.84
2023-01-17T09:29:53.915Z,97084.84
2023-01-17T09:30:55.644Z,97094.94
2023-01-17T09:31:57.445Z,97086.19
2023-01-17T09:32:59.618Z,97089.88
2023-01-17T09:34:01.373Z,97090.53
2023-01-17T09:35:05.299Z,97087.91
2023-01-17T09:36:07.371Z,97093.75
2023-01-17T09:37:11.285Z,97087.53
2023-01-17T09:38:14.093Z,97089.19
2023-01-17T09:39:16.070Z,97090.03
2023-01-17T09:40:22.801Z,97090.50
2023-01-17T09:41:27.775Z,97087.28
2023-01-17T09:42:39.749Z,97082.78
2023-01-17T09:44:35.160Z,97095.00
2023-01-17T09:45:36.936Z,97090.53
2023-01-17T09:46:44.482Z,97076.38
2023-01-17T09:47:52.239Z,97082.94
2023-01-17T09:49:04.682Z,97081.66
2023-01-17T09:50:31.730Z,97073.53
2023-01-17T09:51:33.619Z,97068.03
2023-01-17T09:52:35.273Z,97080.94
2023-01-17T09:53:40.090Z,97078.25
2023-01-17T09:54:43.752Z,97076.19
2023-01-17T09:55:56.378Z,97071.44
2023-01-17T09:57:08.974Z,97074.94
2023-01-17T09:58:18.725Z,97072.25
2023-01-17T09:59:45.799Z,97078.03
2023-01-17T10:01:14.718Z,97072.41
2023-01-17T10:02:28.782Z,97076.66
2023-01-17T10:03:30.611Z,97078.84
2023-01-17T10:04:51.414Z,97072.91
2023-01-17T10:06:03.618Z,97076.84
2023-01-17T10:07:23.522Z,97081.88
2023-01-17T10:08:50.888Z,97071.78
2023-01-17T10:10:02.208Z,97075.31
2023-01-17T10:11:09.625Z,97074.81
2023-01-17T10:12:19.095Z,97072.31
2023-01-17T10:13:54.758Z,97095.84
2023-01-17T10:15:21.301Z,97072.13
2023-01-17T10:17:07.544Z,97071.31
2023-01-17T10:18:34.259Z,97071.91
2023-01-17T10:19:54.534Z,97069.31
2023-01-17T10:21:14.986Z,97061.72
2023-01-17T10:22:32.095Z,97071.72
2023-01-17T10:24:16.284Z,97066.19
2023-01-17T10:25:48.279Z,97052.97
2023-01-17T10:26:56.364Z,97055.34
2023-01-17T10:28:00.620Z,97055.69
2023-01-17T10:29:05.996Z,97051.56
2023-01-17T10:30:23.274Z,97046.38
2023-01-17T10:31:31.953Z,97054.06
2023-01-17T10:32:40.200Z,97072.06
2023-01-17T10:33:51.404Z,97049.88
2023-01-17T10:34:53.660Z,97045.69
2023-01-17T10:36:03.832Z,97032.19
2023-01-17T10:37:35.174Z,97039.34
2023-01-17T10:38:39.022Z,97043.50
2023-01-17T10:39:48.120Z,97036.25
2023-01-17T10:41:05.383Z,97032.22
2023-01-17T10:42:17.134Z,97031.63
2023-01-17T10:43:27.632Z,97037.63
2023-01-17T10:44:32.440Z,97034.94
2023-01-17T10:45:43.721Z,97027.66
2023-01-17T10:46:52.945Z,97030.34
2023-01-17T10:48:38.918Z,97031.47
2023-01-17T10:49:49.651Z,97024.78
2023-01-17T10:51:28.682Z,97026.22
2023-01-17T10:52:30.394Z,97028.16
2023-01-17T10:54:07.217Z,97023.41
2023-01-17T10:55:17.013Z,97016.72
2023-01-17T10:56:26.025Z,97016.88
2023-01-17T10:57:28.330Z,97014.03
2023-01-17T10:58:31.962Z,97024.19
2023-01-17T10:59:37.171Z,97004.53
2023-01-17T11:00:50.020Z,97026.97
2023-01-17T11:01:51.958Z,97019.34
2023-01-17T11:02:54.265Z,97019.50
2023-01-17T11:03:56.342Z,97013.09
2023-01-17T11:05:03.538Z,97009.13
2023-01-17T11:06:21.617Z,96977.47
2023-01-17T11:07:27.218Z,97011.25
2023-01-17T11:08:29.076Z,97012.72
2023-01-17T11:09:39.775Z,97007.69
2023-01-17T11:10:57.167Z,97006.75
2023-01-17T11:11:59.045Z,97002.66
2023-01-17T11:13:00.990Z,96987.53
2023-01-17T11:14:16.162Z,97002.06
2023-01-17T11:15:26.038Z,96996.31
2023-01-17T11:16:31.502Z,96999.63
2023-01-17T11:17:36.881Z,96995.38
2023-01-17T11:18:39.947Z,96995.53
2023-01-17T11:19:45.589Z,96997.91
2023-01-17T11:20:48.478Z,96980.97
2023-01-17T11:21:57.745Z,96990.19
2023-01-17T11:23:21.004Z,96996.81
2023-01-17T11:24:35.400Z,96996.34
2023-01-17T11:25:37.694Z,96986.56
2023-01-17T11:26:47.553Z,96970.78
2023-01-17T11:28:08.306Z,96985.50
2023-01-17T11:29:29.836Z,96985.25
2023-01-17T11:30:31.774Z,96988.41
2023-01-17T11:31:33.601Z,96967.19
2023-01-17T11:32:35.975Z,96985.53
2023-01-17T11:33:47.998Z,96983.84
2023-01-17T11:35:08.357Z,96976.19
2023-01-17T11:36:18.965Z,96979.25
2023-01-17T11:37:22.659Z,96973.69
2023-01-17T11:38:25.260Z,96970.66
2023-01-17T11:39:27.715Z,96958.41
2023-01-17T11:40:44.229Z,96962.69
2023-01-17T11:41:47.947Z,96959.31
2023-01-17T11:43:04.698Z,96950.22
2023-01-17T11:44:29.584Z,96959.34
2023-01-17T11:45:33.564Z,96928.91
2023-01-17T11:46:35.763Z,96944.66
2023-01-17T11:47:37.519Z,96954.22
2023-01-17T11:48:39.486Z,96955.66
2023-01-17T11:49:43.687Z,96950.66
2023-01-17T11:50:54.306Z,96937.44
2023-01-17T11:51:57.170Z,96936.94
2023-01-17T11:53:06.009Z,96930.78
2023-01-17T11:54:24.862Z,96924.91
2023-01-17T11:55:26.698Z,96922.50
2023-01-17T11:56:33.260Z,96914.59
2023-01-17T11:57:36.181Z,96912.34
2023-01-17T11:58:41.632Z,96909.06
2023-01-17T11:59:44.172Z,96883.34
2023-01-17T12:00:51.914Z,96901.47
2023-01-17T12:02:35.723Z,96891.66
2023-01-17T12:04:14.901Z,96896.69
2023-01-17T12:05:26.825Z,96894.69
2023-01-17T12:07:05.585Z,96888.88
2023-01-17T12:08:17.657Z,96887.09
2023-01-17T12:09:31.272Z,96883.50
2023-01-17T12:10:43.614Z,96887.41
2023-01-17T12:12:13.706Z,96888.56
2023-01-17T12:13:52.634Z,96882.91
2023-01-17T12:15:20.796Z,96882.34
2023-01-17T12:16:53.662Z,96871.03
2023-01-17T12:18:09.090Z,96877.56
2023-01-17T12:19:16.817Z,96868.22
2023-01-17T12:20:36.963Z,96871.06
2023-01-17T12:21:39.767Z,96867.38
2023-01-17T12:22:53.927Z,96862.41
2023-01-17T12:23:58.905Z,96859.34
2023-01-17T12:25:21.759Z,96862.44
2023-01-17T12:26:39.304Z,96849.09
2023-01-17T12:28:20.573Z,96855.72
2023-01-17T12:29:36.408Z,96855.34
2023-01-17T12:30:43.789Z,96847.22
2023-01-17T12:32:08.237Z,96836.47
2023-01-17T12:33:47.169Z,96835.28
2023-01-17T12:34:56.480Z,96840.31
2023-01-17T12:36:05.650Z,96824.63
2023-01-17T12:37:19.864Z,96833.94
2023-01-17T12:38:48.197Z,96840.91
2023-01-17T12:40:13.296Z,96833.84
2023-01-17T12:41:26.670Z,96846.84
2023-01-17T12:42:34.543Z,96844.63
2023-01-17T12:43:41.171Z,96845.69
2023-01-17T12:44:42.962Z,96845.91
2023-01-17T12:45:47.667Z,96847.41
2023-01-17T12:47:03.727Z,96834.41
2023-01-17T12:48:18.887Z,96843.72
2023-01-17T12:49:55.532Z,96848.09
2023-01-17T12:51:19.199Z,96850.06
2023-01-17T12:52:34.718Z,96850.81
2023-01-17T12:53:42.049Z,96865.72
2023-01-17T12:54:47.665Z,96792.84
2023-01-17T12:55:55.474Z,96842.22
2023-01-17T12:57:03.745Z,96842.34
2023-01-17T12:58:12.763Z,96834.88
2023-01-17T12:59:27.847Z,96839.94
2023-01-17T13:00:31.646Z,96842.75
2023-01-17T13:01:43.169Z,96833.63
2023-01-17T13:02:51.175Z,96838.28
2023-01-17T13:04:24.480Z,96837.00
2023-01-17T13:05:41.926Z,96831.34
2023-01-17T13:06:52.447Z,96836.41
2023-01-17T13:08:34.396Z,96828.38
2023-01-17T13:10:18.149Z,96838.09
2023-01-17T13:11:19.995Z,96823.47
2023-01-17T13:12:24.853Z,96832.56
2023-01-17T13:13:28.931Z,96824.69